createdAt,value
2023-01-17T00:02:09.837Z,7.70
2023-01-17T00:04:55.466Z,3.58
2023-01-17T00:07:43.397Z,5.43
2023-01-17T00:10:12.900Z,5.18
2023-01-17T00:12:40.073Z,2.80
2023-01-17T00:15:07.649Z,9.05
2023-01-17T00:17:34.531Z,8.05
2023-01-17T00:20:20.409Z,2.33
2023-01-17T00:23:13.619Z,5.05
2023-01-17T00:25:58.961Z,5.75
2023-01-17T00:28:26.647Z,3.75
2023-01-17T00:30:53.885Z,5.15
2023-01-17T00:33:22.171Z,3.60
2023-01-17T00:35:49.037Z,4.90
2023-01-17T00:38:26.919Z,2.15
2023-01-17T00:40:53.643Z,5.47
2023-01-17T00:43:41.276Z,5.20
2023-01-17T00:46:27.049Z,5.35
2023-01-17T00:49:12.271Z,4.85
2023-01-17T00:51:57.643Z,5.80
2023-01-17T00:54:43.188Z,3.08
2023-01-17T00:57:28.722Z,1.95
2023-01-17T01:00:14.348Z,9.18
2023-01-17T01:02:59.848Z,5.95
2023-01-17T01:05:45.400Z,2.72
2023-01-17T01:08:39.426Z,4.50
2023-01-17T01:11:30.517Z,3.40
2023-01-17T01:14:17.799Z,2.17
2023-01-17T01:17:03.187Z,2.42
2023-01-17T01:19:48.694Z,2.47
2023-01-17T01:22:34.121Z,3.42
2023-01-17T01:25:19.482Z,5.35
2023-01-17T01:28:04.912Z,7.10
2023-01-17T01:30:50.790Z,2.50
2023-01-17T01:33:20.577Z,5.25
2023-01-17T01:35:55.363Z,3.78
2023-01-17T01:38:24.103Z,2.30
2023-01-17T01:40:56.536Z,4.20
2023-01-17T01:43:48.959Z,7.35
2023-01-17T01:46:23.615Z,5.72
2023-01-17T01:48:58.279Z,3.78
2023-01-17T01:51:31.575Z,5.00
2023-01-17T01:54:05.015Z,4.45
2023-01-17T01:56:32.628Z,5.90
2023-01-17T01:59:01.275Z,3.88
2023-01-17T02:01:29.570Z,4.40
2023-01-17T02:03:56.860Z,4.75
2023-01-17T02:06:33.218Z,3.78
2023-01-17T02:09:03.686Z,3.80
2023-01-17T02:11:31.128Z,2.22
2023-01-17T02:13:57.943Z,6.10
2023-01-17T02:16:31.422Z,2.80
2023-01-17T02:19:10.510Z,4.93
2023-01-17T02:21:45.360Z,4.00
2023-01-17T02:24:37.022Z,3.85
2023-01-17T02:27:22.463Z,4.43
2023-01-17T02:30:00.162Z,3.53
2023-01-17T02:32:33.416Z,4.40
2023-01-17T02:35:28.449Z,4.70
2023-01-17T02:38:33.882Z,7.07
2023-01-17T02:41:05.741Z,4.32
2023-01-17T02:43:33.080Z,4.97
2023-01-17T02:46:00.196Z,6.15
2023-01-17T02:48:28.609Z,6.55
2023-01-17T02:51:04.689Z,5.30
2023-01-17T02:53:55.719Z,5.68
2023-01-17T02:56:59.858Z,7.35
2023-01-17T02:59:38.505Z,11.77
2023-01-17T03:02:21.568Z,7.72
2023-01-17T03:04:56.272Z,5.43
2023-01-17T03:07:26.306Z,5.03
2023-01-17T03:09:59.216Z,7.05
2023-01-17T03:12:31.463Z,6.22
2023-01-17T03:14:58.237Z,7.07
2023-01-17T03:17:29.324Z,7.60
2023-01-17T03:19:56.153Z,5.90
2023-01-17T03:22:22.962Z,9.50
2023-01-17T03:24:50.540Z,7.55
2023-01-17T03:27:17.269Z,9.60
2023-01-17T03:29:44.033Z,7.28
2023-01-17T03:32:10.761Z,7.88
2023-01-17T03:34:37.742Z,9.20
2023-01-17T03:37:04.613Z,8.02
2023-01-17T03:39:31.843Z,6.97
2023-01-17T03:41:58.594Z,7.55
2023-01-17T03:44:25.375Z,6.75
2023-01-17T03:46:52.227Z,7.80
2023-01-17T03:49:19.250Z,7.93
2023-01-17T03:51:46.286Z,8.57
2023-01-17T03:54:13.496Z,9.30
2023-01-17T03:56:40.459Z,6.18
2023-01-17T03:59:07.353Z,10.00
2023-01-17T04:01:34.181Z,6.97
2023-01-17T04:04:01.138Z,9.73
2023-01-17T04:06:28.528Z,8.98
2023-01-17T04:08:55.243Z,10.93
2023-01-17T04:11:22.033Z,8.70
2023-01-17T04:13:49.126Z,8.68
2023-01-17T04:16:17.905Z,9.75
2023-01-17T04:18:44.839Z,10.80
2023-01-17T04:21:12.015Z,10.68
2023-01-17T04:23:38.801Z,10.25
2023-01-17T04:26:05.750Z,8.48
2023-01-17T04:28:32.476Z,8.98
2023-01-17T04:31:00.182Z,10.18
2023-01-17T04:33:27.173Z,8.48
2023-01-17T04:35:54.321Z,9.55
2023-01-17T04:38:21.929Z,11.93
2023-01-17T04:40:48.762Z,9.35
2023-01-17T04:43:16.819Z,12.50
2023-01-17T04:45:43.932Z,8.82
2023-01-17T04:48:12.736Z,8.48
2023-01-17T04:50:40.072Z,10.75
2023-01-17T04:53:07.064Z,12.20
2023-01-17T04:55:34.184Z,10.32
2023-01-17T04:58:00.972Z,9.43
2023-01-17T05:00:27.795Z,8.38
2023-01-17T05:02:54.668Z,8.00
2023-01-17T05:05:21.727Z,14.88
2023-01-17T05:07:58.758Z,11.90
2023-01-17T05:10:26.295Z,11.52
2023-01-17T05:12:57.388Z,12.18
2023-01-17T05:15:24.462Z,10.13
2023-01-17T05:17:52.560Z,7.85
2023-01-17T05:20:20.653Z,14.10
2023-01-17T05:22:55.504Z,13.48
2023-01-17T05:25:30.123Z,8.63
2023-01-17T05:27:57.582Z,10.73
2023-01-17T05:30:24.275Z,6.18
2023-01-17T05:32:52.974Z,12.30
2023-01-17T05:35:22.004Z,7.50
2023-01-17T05:37:50.036Z,10.07
2023-01-17T05:40:20.969Z,10.27
2023-01-17T05:42:48.800Z,17.80
2023-01-17T05:45:19.267Z,10.70
2023-01-17T05:47:47.808Z,9.70
2023-01-17T05:50:17.545Z,8.93
2023-01-17T05:52:56.653Z,9.30
2023-01-17T05:55:24.601Z,10.07
2023-01-17T05:57:51.582Z,11.02
2023-01-17T06:00:19.271Z,10.68
2023-01-17T06:02:47.041Z,13.25
2023-01-17T06:05:14.579Z,15.40
2023-01-17T06:07:44.238Z,11.02
2023-01-17T06:10:11.748Z,9.95
2023-01-17T06:12:38.450Z,5.70
2023-01-17T06:15:06.646Z,10.95
2023-01-17T06:17:33.419Z,7.93
2023-01-17T06:20:00.222Z,8.18
2023-01-17T06:22:27.080Z,7.00
2023-01-17T06:24:54.089Z,10.20
2023-01-17T06:27:21.451Z,9.93
2023-01-17T06:29:48.226Z,5.65
2023-01-17T06:32:15.288Z,8.93
2023-01-17T06:34:42.153Z,10.93
2023-01-17T06:37:09.828Z,11.73
2023-01-17T06:39:37.004Z,12.93
2023-01-17T06:42:04.185Z,9.15
2023-01-17T06:44:31.319Z,11.50
2023-01-17T06:46:58.668Z,7.60
2023-01-17T06:49:26.334Z,12.05
2023-01-17T06:51:53.292Z,8.90
2023-01-17T06:54:20.123Z,10.60
2023-01-17T06:56:47.126Z,10.65
2023-01-17T06:59:14.038Z,12.25
2023-01-17T07:01:41.511Z,12.80
2023-01-17T07:04:08.620Z,10.73
2023-01-17T07:06:36.537Z,13.00
2023-01-17T07:09:04.406Z,10.63
2023-01-17T07:11:31.625Z,8.93
2023-01-17T07:13:58.646Z,16.63
2023-01-17T07:16:25.580Z,12.68
2023-01-17T07:18:53.294Z,9.43
2023-01-17T07:21:20.163Z,11.93
2023-01-17T07:23:48.200Z,12.00
2023-01-17T07:26:17.331Z,10.70
2023-01-17T07:28:44.399Z,10.88
2023-01-17T07:31:11.447Z,15.30
2023-01-17T07:33:38.383Z,13.15
2023-01-17T07:36:11.405Z,17.92
2023-01-17T07:38:38.487Z,11.60
2023-01-17T07:41:07.247Z,10.98
2023-01-17T07:43:36.780Z,9.93
2023-01-17T07:46:06.381Z,11.27
2023-01-17T07:48:33.301Z,12.75
2023-01-17T07:51:00.103Z,10.70
2023-01-17T07:53:31.128Z,16.50
2023-01-17T07:56:03.453Z,14.20
2023-01-17T07:58:31.368Z,15.35
2023-01-17T08:01:06.125Z,14.48
2023-01-17T08:03:36.340Z,16.92
2023-01-17T08:06:03.447Z,11.10
2023-01-17T08:08:30.388Z,14.50
2023-01-17T08:10:57.323Z,13.07
2023-01-17T08:13:24.512Z,15.75
2023-01-17T08:15:52.016Z,17.85
2023-01-17T08:18:18.981Z,12.32
2023-01-17T08:20:45.929Z,11.10
2023-01-17T08:23:12.807Z,18.55
2023-01-17T08:25:40.142Z,16.63
2023-01-17T08:28:10.165Z,14.18
2023-01-17T08:30:37.006Z,13.38
2023-01-17T08:33:03.953Z,13.63
2023-01-17T08:35:31.388Z,13.75
2023-01-17T08:38:00.009Z,11.82
2023-01-17T08:40:27.041Z,15.35
2023-01-17T08:42:55.588Z,18.30
2023-01-17T08:45:22.686Z,19.02
2023-01-17T08:47:49.880Z,12.85
2023-01-17T08:50:20.858Z,17.63
2023-01-17T08:52:50.741Z,19.10
2023-01-17T08:55:17.988Z,16.70
2023-01-17T08:57:45.321Z,19.20
2023-01-17T09:00:15.512Z,13.20
2023-01-17T09:02:42.422Z,15.90
2023-01-17T09:05:09.604Z,17.58
2023-01-17T09:07:37.398Z,16.75
2023-01-17T09:10:06.055Z,13.70
2023-01-17T09:12:34.504Z,15.07
2023-01-17T09:15:02.833Z,16.13
2023-01-17T09:17:29.893Z,12.95
2023-01-17T09:19:56.777Z,13.70
2023-01-17T09:22:23.723Z,18.00
2023-01-17T09:24:50.547Z,24.35
2023-01-17T09:27:23.867Z,14.80
2023-01-17T09:29:55.063Z,18.05
2023-01-17T09:32:22.043Z,18.00
2023-01-17T09:34:51.086Z,15.48
2023-01-17T09:37:18.171Z,16.15
2023-01-17T09:39:45.168Z,18.30
2023-01-17T09:42:31.277Z,13.88
2023-01-17T09:44:58.678Z,17.80
2023-01-17T09:47:35.641Z,15.65
2023-01-17T09:50:26.179Z,16.05
2023-01-17T09:53:03.440Z,17.00
2023-01-17T09:55:43.797Z,16.20
2023-01-17T09:58:21.054Z,17.75
2023-01-17T10:01:00.647Z,15.23
2023-01-17T10:03:33.566Z,19.77
2023-01-17T10:06:22.226Z,13.75
2023-01-17T10:08:51.954Z,18.27
2023-01-17T10:12:00.028Z,16.25
2023-01-17T10:14:56.010Z,14.40
2023-01-17T10:17:36.618Z,14.80
2023-01-17T10:20:34.196Z,13.55
2023-01-17T10:23:01.343Z,15.70
2023-01-17T10:25:47.967Z,16.77
2023-01-17T10:28:17.600Z,12.48
2023-01-17T10:30:50.198Z,15.25
2023-01-17T10:33:29.580Z,11.13
2023-01-17T10:36:03.845Z,11.52
2023-01-17T10:38:42.449Z,14.85
2023-01-17T10:41:16.287Z,11.88
2023-01-17T10:43:50.050Z,11.90
2023-01-17T10:46:31.446Z,14.57
2023-01-17T10:48:58.602Z,10.45
2023-01-17T10:51:43.968Z,15.23
2023-01-17T10:54:27.941Z,14.43
2023-01-17T10:56:55.279Z,15.93
2023-01-17T10:59:25.362Z,14.37
2023-01-17T11:01:52.404Z,13.57
2023-01-17T11:04:31.350Z,11.30
2023-01-17T11:07:13.423Z,16.63
2023-01-17T11:09:44.816Z,17.60
2023-01-17T11:12:22.087Z,12.43
2023-01-17T11:15:10.168Z,12.60
2023-01-17T11:17:53.384Z,11.67
2023-01-17T11:20:33.036Z,13.02
2023-01-17T11:23:32.808Z,15.05
2023-01-17T11:26:06.073Z,10.73
2023-01-17T11:28:35.103Z,10.55
2023-01-17T11:31:07.736Z,14.60
2023-01-17T11:33:48.093Z,17.17
2023-01-17T11:36:27.636Z,9.87
2023-01-17T11:39:04.655Z,9.60
2023-01-17T11:41:42.074Z,5.67
2023-01-17T11:44:34.798Z,14.13
2023-01-17T11:47:13.822Z,14.43
2023-01-17T11:49:42.864Z,16.87
2023-01-17T11:52:33.332Z,9.93
2023-01-17T11:55:00.312Z,9.80
2023-01-17T11:57:34.399Z,7.37
2023-01-17T12:00:29.499Z,7.63
2023-01-17T12:03:16.145Z,8.53
2023-01-17T12:05:46.919Z,8.33
2023-01-17T12:08:14.101Z,10.00
2023-01-17T12:11:06.896Z,8.40
2023-01-17T12:13:58.530Z,8.60
2023-01-17T12:17:03.738Z,7.53
2023-01-17T12:20:01.127Z,6.50
2023-01-17T12:23:05.843Z,8.53
2023-01-17T12:25:54.635Z,8.43
2023-01-17T12:28:33.897Z,11.80
2023-01-17T12:31:17.205Z,10.13
2023-01-17T12:34:22.025Z,9.10
2023-01-17T12:36:56.624Z,8.87
2023-01-17T12:39:37.684Z,7.80
2023-01-17T12:42:23.591Z,6.60
2023-01-17T12:45:02.518Z,9.53
2023-01-17T12:47:30.349Z,4.93
2023-01-17T12:50:20.813Z,4.40
2023-01-17T12:53:18.700Z,7.87
2023-01-17T12:55:59.652Z,5.67
2023-01-17T12:58:31.135Z,6.77
2023-01-17T13:01:32.998Z,3.93
2023-01-17T13:04:15.280Z,9.27
2023-01-17T13:06:52.511Z,6.40
2023-01-17T13:09:22.267Z,10.20
2023-01-17T13:11:59.678Z,4.90
2023-01-17T13:14:28.662Z,7.20
2023-01-17T13:16:58.842Z,5.30
2023-01-17T13:19:25.913Z,6.17
2023-01-17T13:21:53.153Z,5.60
2023-01-17T13:24:33.677Z,4.77
2023-01-17T13:27:12.811Z,6.87
2023-01-17T13:29:47.763Z,5.77
2023-01-17T13:32:24.908Z,7.23
2023-01-17T13:35:07.871Z,7.47
2023-01-17T13:38:09.018Z,9.80
2023-01-17T13:40:37.732Z,4.93
2023-01-17T13:43:19.286Z,3.63
2023-01-17T13:46:00.025Z,3.13
2023-01-17T13:48:34.980Z,3.27
2023-01-17T13:51:25.042Z,11.37
2023-01-17T13:53:51.971Z,4.50
2023-01-17T13:56:18.638Z,4.40
2023-01-17T13:58:47.309Z,4.57
2023-01-17T14:01:14.463Z,4.40
2023-01-17T14:03:50.484Z,2.00
2023-01-17T14:06:41.508Z,4.40
2023-01-17T14:09:08.542Z,7.80
2023-01-17T14:11:57.337Z,5.83
2023-01-17T14:14:36.598Z,4.03
2023-01-17T14:17:12.932Z,5.23
2023-01-17T14:19:39.838Z,2.97
2023-01-17T14:22:22.716Z,5.00
2023-01-17T14:25:10.085Z,3.93
2023-01-17T14:27:46.160Z,4.63
2023-01-17T14:30:25.116Z,3.27
2023-01-17T14:33:01.464Z,6.83
2023-01-17T14:35:34.500Z,5.13
2023-01-17T14:38:05.840Z,6.47
2023-01-17T14:40:34.992Z,4.73
2023-01-17T14:43:07.183Z,5.63
2023-01-17T14:45:35.473Z,5.43
2023-01-17T14:48:07.643Z,5.60
2023-01-17T14:50:42.688Z,5.63
2023-01-17T14:53:15.842Z,6.03
2023-01-17T14:55:49.380Z,8.93
2023-01-17T14:58:22.053Z,6.67
2023-01-17T15:00:58.697Z,5.20
2023-01-17T15:03:27.727Z,12.37
2023-01-17T15:05:57.618Z,9.60
2023-01-17T15:08:32.961Z,1.47
2023-01-17T15:11:05.463Z,5.67
2023-01-17T15:13:44.861Z,8.03
2023-01-17T15:16:24.865Z,7.27
2023-01-17T15:18:53.684Z,3.40
2023-01-17T15:21:23.036Z,11.47
2023-01-17T15:23:58.926Z,5.60
2023-01-17T15:26:28.907Z,6.33
2023-01-17T15:29:06.034Z,3.70
2023-01-17T15:31:49.369Z,9.57
2023-01-17T15:34:30.987Z,9.50
2023-01-17T15:37:01.129Z,3.70
2023-01-17T15:39:30.847Z,3.63
2023-01-17T15:42:00.139Z,3.97
2023-01-17T15:44:49.721Z,5.50
2023-01-17T15:47:39.788Z,5.23
2023-01-17T15:50:28.748Z,3.63
2023-01-17T15:53:04.855Z,6.53
2023-01-17T15:55:34.367Z,6.73
2023-01-17T15:58:01.857Z,6.87
2023-01-17T16:00:37.464Z,6.77
2023-01-17T16:03:20.212Z,10.43
2023-01-17T16:05:47.808Z,9.60
2023-01-17T16:08:25.352Z,7.93
2023-01-17T16:11:01.910Z,11.07
2023-01-17T16:13:33.401Z,8.43
2023-01-17T16:16:18.528Z,6.50
2023-01-17T16:18:46.659Z,5.40
2023-01-17T16:21:18.881Z,5.27
2023-01-17T16:23:46.104Z,13.60
2023-01-17T16:26:12.895Z,9.80
2023-01-17T16:28:39.694Z,14.83
2023-01-17T16:31:06.893Z,7.63
2023-01-17T16:33:33.839Z,8.80
2023-01-17T16:36:00.655Z,13.00
2023-01-17T16:38:27.344Z,9.80
2023-01-17T16:40:54.489Z,9.97
2023-01-17T16:43:21.217Z,7.87
2023-01-17T16:45:53.151Z,8.80
2023-01-17T16:48:20.352Z,11.30
2023-01-17T16:50:50.848Z,11.83
2023-01-17T16:53:26.312Z,8.60
2023-01-17T16:55:58.633Z,13.57
2023-01-17T16:58:25.615Z,17.53
2023-01-17T17:00:52.580Z,10.55
2023-01-17T17:03:21.048Z,14.38
2023-01-17T17:05:58.782Z,11.80
2023-01-17T17:08:25.678Z,11.27
2023-01-17T17:10:52.632Z,10.30
2023-01-17T17:13:19.694Z,7.93
2023-01-17T17:15:46.983Z,10.90
2023-01-17T17:18:15.332Z,12.95
2023-01-17T17:20:42.961Z,14.43
2023-01-17T17:23:26.489Z,16.83
2023-01-17T17:25:56.959Z,16.42
2023-01-17T17:28:23.922Z,15.38
2023-01-17T17:30:50.702Z,12.75
2023-01-17T17:33:17.494Z,13.60
2023-01-17T17:35:44.355Z,11.90
2023-01-17T17:38:11.188Z,11.02
2023-01-17T17:40:38.110Z,9.90
2023-01-17T17:43:04.876Z,12.63
2023-01-17T17:45:35.107Z,14.82
2023-01-17T17:48:01.958Z,12.60
2023-01-17T17:50:28.880Z,15.07
2023-01-17T17:52:55.670Z,12.30
2023-01-17T17:55:22.501Z,11.40
2023-01-17T17:57:50.082Z,8.57
2023-01-17T18:00:18.042Z,13.98
2023-01-17T18:02:44.795Z,11.75
2023-01-17T18:05:14.974Z,12.77
2023-01-17T18:07:42.408Z,15.60
2023-01-17T18:10:09.895Z,9.48
2023-01-17T18:12:36.587Z,12.60
2023-01-17T18:15:03.381Z,14.20
2023-01-17T18:17:30.754Z,15.45
2023-01-17T18:19:57.657Z,13.52
2023-01-17T18:22:24.571Z,13.38
2023-01-17T18:24:51.376Z,17.95
2023-01-17T18:27:18.252Z,13.55
2023-01-17T18:29:45.076Z,11.93
2023-01-17T18:32:13.209Z,11.05
2023-01-17T18:34:41.528Z,13.43
2023-01-17T18:37:08.480Z,15.57
2023-01-17T18:39:35.186Z,9.68
2023-01-17T18:42:02.139Z,14.07
2023-01-17T18:44:30.054Z,16.92
2023-01-17T18:47:01.929Z,12.57
2023-01-17T18:49:29.187Z,18.33
2023-01-17T18:51:55.899Z,18.40
2023-01-17T18:54:22.627Z,16.67
2023-01-17T18:56:49.584Z,9.13
2023-01-17T18:59:20.457Z,12.30
2023-01-17T19:01:48.086Z,9.73
2023-01-17T19:04:17.218Z,12.93
2023-01-17T19:06:46.378Z,9.80
2023-01-17T19:09:14.899Z,8.73
2023-01-17T19:11:44.553Z,10.50
2023-01-17T19:14:12.224Z,9.45
2023-01-17T19:16:41.405Z,9.57
2023-01-17T19:19:10.666Z,11.27
2023-01-17T19:21:37.912Z,13.50
2023-01-17T19:24:04.930Z,11.35
2023-01-17T19:26:31.769Z,11.27
2023-01-17T19:29:00.301Z,14.90
2023-01-17T19:31:29.026Z,14.95
2023-01-17T19:33:57.628Z,12.65
2023-01-17T19:36:27.459Z,12.30
2023-01-17T19:39:04.347Z,11.25
2023-01-17T19:41:32.418Z,11.98
2023-01-17T19:44:08.913Z,14.13
2023-01-17T19:46:36.515Z,12.02
2023-01-17T19:49:05.493Z,17.70
2023-01-17T19:51:32.544Z,22.08
2023-01-17T19:54:01.372Z,23.58
2023-01-17T19:56:28.895Z,20.85
2023-01-17T19:59:00.702Z,19.30
2023-01-17T20:01:30.164Z,24.85
2023-01-17T20:03:58.313Z,22.10
2023-01-17T20:06:28.800Z,22.35
2023-01-17T20:08:55.999Z,14.10
2023-01-17T20:11:24.171Z,17.15
2023-01-17T20:13:56.126Z,25.90
2023-01-17T20:16:24.761Z,21.70
2023-01-17T20:18:52.089Z,30.73
2023-01-17T20:21:24.335Z,21.52
2023-01-17T20:23:52.038Z,20.75
2023-01-17T20:26:25.236Z,21.65
2023-01-17T20:28:53.428Z,21.35
2023-01-17T20:31:25.198Z,22.60
2023-01-17T20:33:56.092Z,19.13
2023-01-17T20:36:25.487Z,19.90
2023-01-17T20:38:53.376Z,21.38
2023-01-17T20:41:22.496Z,23.27
2023-01-17T20:43:51.666Z,18.58
2023-01-17T20:46:19.890Z,17.20
2023-01-17T20:48:47.424Z,18.50
2023-01-17T20:51:14.884Z,18.38
2023-01-17T20:53:43.505Z,17.23
2023-01-17T20:56:12.730Z,20.00
2023-01-17T20:58:40.000Z,19.05
2023-01-17T21:01:08.877Z,18.23
2023-01-17T21:03:36.127Z,21.50
2023-01-17T21:06:08.223Z,23.95
2023-01-17T21:08:37.832Z,20.65
2023-01-17T21:11:05.740Z,19.02
2023-01-17T21:13:32.643Z,15.35
2023-01-17T21:15:59.796Z,14.75
2023-01-17T21:18:27.960Z,19.67
2023-01-17T21:20:54.655Z,19.95
2023-01-17T21:23:23.742Z,14.95
2023-01-17T21:25:59.599Z,15.88
2023-01-17T21:28:28.859Z,15.68
2023-01-17T21:30:55.859Z,15.55
2023-01-17T21:33:25.328Z,19.10
2023-01-17T21:35:52.664Z,15.02
2023-01-17T21:38:20.290Z,15.80
2023-01-17T21:40:47.254Z,14.27
2023-01-17T21:43:15.174Z,15.13
2023-01-17T21:45:42.474Z,13.38
2023-01-17T21:48:13.545Z,12.95
2023-01-17T21:50:40.441Z,16.10
2023-01-17T21:53:08.669Z,13.82
2023-01-17T21:55:54.498Z,24.17
2023-01-17T21:58:39.878Z,15.25
2023-01-17T22:01:25.363Z,14.70
2023-01-17T22:03:57.724Z,15.27
2023-01-17T22:06:28.287Z,16.77
2023-01-17T22:08:55.407Z,17.63
2023-01-17T22:11:25.081Z,15.98
2023-01-17T22:13:52.232Z,17.52
2023-01-17T22:16:21.099Z,17.55
2023-01-17T22:18:47.935Z,17.13
2023-01-17T22:21:23.507Z,17.63
2023-01-17T22:23:52.302Z,16.00
2023-01-17T22:26:21.527Z,18.92
2023-01-17T22:28:48.629Z,20.15
2023-01-17T22:31:23.719Z,18.02
2023-01-17T22:33:58.380Z,17.52
2023-01-17T22:36:25.628Z,16.05
2023-01-17T22:38:52.793Z,27.50
2023-01-17T22:41:27.959Z,17.88
2023-01-17T22:43:58.463Z,16.50
2023-01-17T22:46:27.739Z,19.83
2023-01-17T22:48:55.153Z,15.48
2023-01-17T22:51:24.268Z,15.25
2023-01-17T22:53:55.338Z,15.57
2023-01-17T22:56:24.591Z,15.00
2023-01-17T22:58:52.987Z,18.15
2023-01-17T23:01:21.975Z,14.82
2023-01-17T23:03:53.978Z,17.67
2023-01-17T23:06:28.572Z,15.30
2023-01-17T23:08:57.122Z,15.15
2023-01-17T23:11:46.168Z,16.42
2023-01-17T23:14:14.692Z,17.17
2023-01-17T23:17:07.027Z,14.48
2023-01-17T23:19:37.920Z,13.85
2023-01-17T23:22:15.813Z,19.65
2023-01-17T23:24:46.076Z,16.88
2023-01-17T23:27:46.130Z,18.98
2023-01-17T23:30:14.168Z,16.95
2023-01-17T23:32:44.740Z,21.35
2023-01-17T23:35:11.864Z,17.73
2023-01-17T23:37:57.131Z,15.25
2023-01-17T23:40:24.760Z,19.77
2023-01-17T23:43:09.885Z,18.98
2023-01-17T23:45:37.945Z,15.77
2023-01-17T23:48:09.261Z,23.90
2023-01-17T23:50:40.474Z,16.02
2023-01-17T23:53:08.124Z,21.50
2023-01-17T23:55:39.748Z,19.45
2023-01-17T23:58:08.484Z,14.27
